Window Rock, AZ (86515)

11:33 PM MST on February 07, 2016 (GMT -0700)
Window Rock | | Change Station
CLOSE
Current Station
Airport
Location: Window Rock,
Elevation: 6742 ft
Nearby Weather Stations

Elev 6742 ft 35.66 °N, 109.06 °W | Updated 40 minutes ago

Clear
Clear
28 °F
Feels Like 28 °F
N
0
Wind Variable Wind from North

Today
High -- | Low -- °F
--% Chance of Precip.
Yesterday
High -- | Low -- °F
Precip. -- in
Pressure 30.41 in
Visibility 10.0 miles
Clouds Clear
Dew Point 0 °F
Humidity 30%
Rainfall 0.00 in
Snow Depth Not available.
7:11 AM 5:49 PM
Waning Crescent, 0% visible
METAR KRQE 080553Z AUTO 00000KT 10SM CLR M02/M18 A3045 RMK AO2 SLP298 T10221178 10094 21028 51012 TSNO
Pressure 30.41 in
Visibility 10.0 miles
Clouds Clear
Dew Point 0 °F
Humidity 30%
Rainfall 0.00 in
Snow Depth Not available.
7:11 AM 5:49 PM
Waning Crescent, 0% visible
METAR KRQE 080553Z AUTO 00000KT 10SM CLR M02/M18 A3045 RMK AO2 SLP298 T10221178 10094 21028 51012 TSNO

10-Day Weather Forecast

Almanac

Astronomy

Feb. 07, 2016 Rise Set
Actual Time
Civil Twilight
Nautical Twilight
Astronomical Twilight
Moon
Length of Visible Light
Length of Day
Tomorrow will be .
, % of the Moon is Illuminated

Today's Extremes

State Highs State Lows

Community

WunderPhotos

Upload Photos

1,891,395 photos uploaded!

WunderBlog® & News

Nearby

Air Quality

  Air Quality AQ Index Pollutant
Not available.

Snow Depth

Station Depth Elevation

Earthquake Activity

City Distance Mag. Time & Date
Minimum magnitude displayed is 2.5.

Coastal Water Temperatures

Place Temperature

Stations

Nearby Weather Stations

Station Location Temp. Windchill Dew Point Humidity Wind Precip. Elev Updated Type
                   

Watches & Warnings

There are currently no watches in effect.